PWSweather.com
Personal Weather Stations
Station Observations
KMAMEDFI2
Medfield, MA 02052

Medfield, MA 02052

Lat: 42.1900822, Lon: -71.3296889

Elevation: 138

Station Type: Rainwise WS MK-III

http://www.medfieldweather.com

High Low Average
Temperature 14.4°F-9.8°C -1.6°F-18.7°C 5.8°F-14.6°C
Dew Point -6.6°F-21.4°C -13.2°F-25.1°C -10.3°F-23.5°C
Winds 8.1 mph 13.0 kmh Calm Calm 3.0 mph W4.8 kmh W
Wind Gusts 13.8 mph22.2 kmh 1.2 mph1.9 kmh 6.0 mph9.7 kmh
Humidity 61% 33% 47%
Pressure 30.23 in1023.7 mb 30.02 in1016.6 mb -
Precipitation 0.00 in0.0 mm - -
Hour Temp Dew Point Humidity Winds Wind Gusts Pressure Precip Precip Rate Daily Precip Total
12:00 AM 5.1°F-14.9°C -9.9°F-23.3°C 49% 3.5 mph WNW5.6 kmh WNW 8.1 mph13.0 kmh 29.98 in1015.2 mb - 0.00 in0.0 mm 0.10 in2.5 mm
12:10 AM 4.8°F-15.1°C -9.4°F-23.0°C 51% 6.9 mph WNW11.1 kmh WNW 11.5 mph18.5 kmh 29.99 in1015.6 mb - 0.00 in0.0 mm 0.10 in2.5 mm
12:20 AM 4.7°F-15.2°C -9.9°F-23.3°C 50% 3.5 mph WNW5.6 kmh WNW 2.3 mph3.7 kmh 29.99 in1015.6 mb - 0.00 in0.0 mm 0.10 in2.5 mm
12:30 AM 4.6°F-15.2°C -10.4°F-23.6°C 49% 8.1 mph WNW13.0 kmh WNW 15.0 mph24.1 kmh 30.00 in1015.9 mb - 0.00 in0.0 mm 0.10 in2.5 mm
12:40 AM 4.4°F-15.3°C -10.2°F-23.4°C 50% 3.5 mph WNW5.6 kmh WNW 5.8 mph9.3 kmh 30.00 in1015.9 mb - 0.00 in0.0 mm 0.10 in2.5 mm
12:50 AM 4.1°F-15.5°C -10.5°F-23.6°C 50% 2.3 mph WNW3.7 kmh WNW 3.5 mph5.6 kmh 30.01 in1016.3 mb - 0.00 in0.0 mm 0.10 in2.5 mm
01:00 AM 3.9°F-15.6°C -11.5°F-24.2°C 48% 3.5 mph WNW5.6 kmh WNW 3.5 mph5.6 kmh 30.02 in1016.6 mb - 0.00 in0.0 mm 0.00 in0.0 mm
01:10 AM 3.8°F-15.7°C -10.8°F-23.8°C 50% 3.5 mph WNW5.6 kmh WNW 5.8 mph9.3 kmh 30.02 in1016.6 mb - 0.00 in0.0 mm 0.00 in0.0 mm
01:20 AM 3.5°F-15.8°C -11.0°F-23.9°C 50% 3.5 mph WNW5.6 kmh WNW 5.8 mph9.3 kmh 30.03 in1016.9 mb - 0.00 in0.0 mm 0.00 in0.0 mm
01:30 AM 3.2°F-16.0°C -10.5°F-23.6°C 52% 3.5 mph WNW5.6 kmh WNW 8.1 mph13.0 kmh 30.03 in1016.9 mb - 0.00 in0.0 mm 0.00 in0.0 mm
01:40 AM 3.1°F-16.1°C -10.2°F-23.4°C 53% 5.8 mph WNW9.3 kmh WNW 6.9 mph11.1 kmh 30.03 in1016.9 mb - 0.00 in0.0 mm 0.00 in0.0 mm
01:50 AM 2.8°F-16.2°C -10.1°F-23.4°C 54% 3.5 mph WNW5.6 kmh WNW 6.9 mph11.1 kmh 30.03 in1016.9 mb - 0.00 in0.0 mm 0.00 in0.0 mm
02:00 AM 2.5°F-16.4°C -10.7°F-23.7°C 53% 2.3 mph WNW3.7 kmh WNW 6.9 mph11.1 kmh 30.03 in1016.9 mb - 0.00 in0.0 mm 0.00 in0.0 mm
02:10 AM 2.4°F-16.4°C -11.2°F-24.0°C 52% 3.5 mph WNW5.6 kmh WNW 6.9 mph11.1 kmh 30.04 in1017.3 mb - 0.00 in0.0 mm 0.00 in0.0 mm
02:20 AM 2.2°F-16.6°C -11.8°F-24.3°C 51% 2.3 mph WNW3.7 kmh WNW 5.8 mph9.3 kmh 30.04 in1017.3 mb - 0.00 in0.0 mm 0.00 in0.0 mm
02:30 AM 2.3°F-16.5°C -12.1°F-24.5°C 50% 3.5 mph WNW5.6 kmh WNW 9.2 mph14.8 kmh 30.04 in1017.3 mb - 0.00 in0.0 mm 0.00 in0.0 mm
02:40 AM 2.1°F-16.6°C -12.3°F-24.6°C 50% 4.6 mph WNW7.4 kmh WNW 8.1 mph13.0 kmh 30.05 in1017.6 mb - 0.00 in0.0 mm 0.00 in0.0 mm
02:50 AM 1.9°F-16.7°C -12.5°F-24.7°C 50% 2.3 mph WNW3.7 kmh WNW 5.8 mph9.3 kmh 30.05 in1017.6 mb - 0.00 in0.0 mm 0.00 in0.0 mm
03:00 AM 1.7°F-16.8°C -11.9°F-24.4°C 52% 3.5 mph WNW5.6 kmh WNW 3.5 mph5.6 kmh 30.05 in1017.6 mb - 0.00 in0.0 mm 0.00 in0.0 mm
03:10 AM 1.5°F-16.9°C -12.5°F-24.7°C 51% 3.5 mph WNW5.6 kmh WNW 5.8 mph9.3 kmh 30.06 in1017.9 mb - 0.00 in0.0 mm 0.00 in0.0 mm
03:20 AM 1.4°F-17.0°C -12.5°F-24.7°C 51% 3.5 mph WNW5.6 kmh WNW 5.8 mph9.3 kmh 30.06 in1017.9 mb - 0.00 in0.0 mm 0.00 in0.0 mm
03:30 AM 1.4°F-17.0°C -12.5°F-24.7°C 51% 5.8 mph WNW9.3 kmh WNW 6.9 mph11.1 kmh 30.06 in1017.9 mb - 0.00 in0.0 mm 0.00 in0.0 mm
03:40 AM 1.3°F-17.1°C -12.7°F-24.8°C 51% 3.5 mph WNW5.6 kmh WNW 3.5 mph5.6 kmh 30.07 in1018.3 mb - 0.00 in0.0 mm 0.00 in0.0 mm
03:50 AM 1.1°F-17.2°C -12.4°F-24.7°C 52% 2.3 mph WNW3.7 kmh WNW 5.8 mph9.3 kmh 30.07 in1018.3 mb - 0.00 in0.0 mm 0.00 in0.0 mm
04:00 AM 1.1°F-17.2°C -12.1°F-24.5°C 53% 2.3 mph WNW3.7 kmh WNW 2.3 mph3.7 kmh 30.07 in1018.3 mb - 0.00 in0.0 mm 0.00 in0.0 mm
04:10 AM 0.8°F-17.3°C -12.7°F-24.8°C 52% 1.2 mph WNW1.9 kmh WNW 2.3 mph3.7 kmh 30.07 in1018.3 mb - 0.00 in0.0 mm 0.00 in0.0 mm
04:20 AM 0.8°F-17.3°C -12.3°F-24.6°C 53% 2.3 mph WNW3.7 kmh WNW 2.3 mph3.7 kmh 30.07 in1018.3 mb - 0.00 in0.0 mm 0.00 in0.0 mm
04:30 AM 0.7°F-17.4°C -12.8°F-24.9°C 52% 2.3 mph WNW3.7 kmh WNW 5.8 mph9.3 kmh 30.08 in1018.6 mb - 0.00 in0.0 mm 0.00 in0.0 mm
04:40 AM 0.6°F-17.4°C -12.5°F-24.7°C 53% 4.6 mph WNW7.4 kmh WNW 9.2 mph14.8 kmh 30.08 in1018.6 mb - 0.00 in0.0 mm 0.00 in0.0 mm
04:50 AM 0.5°F-17.5°C -13.0°F-25.0°C 52% 3.5 mph WNW5.6 kmh WNW 3.5 mph5.6 kmh 30.08 in1018.6 mb - 0.00 in0.0 mm 0.00 in0.0 mm
05:00 AM 0.3°F-17.6°C -12.8°F-24.9°C 53% 1.2 mph WNW1.9 kmh WNW 3.5 mph5.6 kmh 30.09 in1019.0 mb - 0.00 in0.0 mm 0.00 in0.0 mm
05:10 AM 0.3°F-17.6°C -13.2°F-25.1°C 52% 2.3 mph WNW3.7 kmh WNW 2.3 mph3.7 kmh 30.09 in1019.0 mb - 0.00 in0.0 mm 0.00 in0.0 mm
05:20 AM 0.2°F-17.7°C -12.9°F-24.9°C 53% 1.2 mph WNW1.9 kmh WNW 2.3 mph3.7 kmh 30.09 in1019.0 mb - 0.00 in0.0 mm 0.00 in0.0 mm
05:30 AM 0.0°F-17.8°C -13.1°F-25.1°C 53% 1.2 mph WNW1.9 kmh WNW 2.3 mph3.7 kmh 30.10 in1019.3 mb - 0.00 in0.0 mm 0.00 in0.0 mm
05:40 AM -0.1°F-17.8°C -12.5°F-24.7°C 55% 2.3 mph WNW3.7 kmh WNW 5.8 mph9.3 kmh 30.10 in1019.3 mb - 0.00 in0.0 mm 0.00 in0.0 mm
05:50 AM -0.3°F-17.9°C -12.6°F-24.8°C 55% 1.2 mph WNW1.9 kmh WNW 2.3 mph3.7 kmh 30.11 in1019.6 mb - 0.00 in0.0 mm 0.00 in0.0 mm
06:00 AM -0.5°F-18.1°C -12.8°F-24.9°C 55% 2.3 mph WNW3.7 kmh WNW 3.5 mph5.6 kmh 30.11 in1019.6 mb - 0.00 in0.0 mm 0.00 in0.0 mm
06:10 AM -0.7°F-18.2°C -13.0°F-25.0°C 55% 2.3 mph WNW3.7 kmh WNW 2.3 mph3.7 kmh 30.11 in1019.6 mb - 0.00 in0.0 mm 0.00 in0.0 mm
06:20 AM -0.7°F-18.2°C -12.7°F-24.8°C 56% 2.3 mph WNW3.7 kmh WNW 3.5 mph5.6 kmh 30.12 in1020.0 mb - 0.00 in0.0 mm 0.00 in0.0 mm
06:30 AM -0.8°F-18.2°C -12.8°F-24.9°C 56% 1.2 mph WNW1.9 kmh WNW 2.3 mph3.7 kmh 30.12 in1020.0 mb - 0.00 in0.0 mm 0.00 in0.0 mm
06:40 AM -0.9°F-18.3°C -12.9°F-24.9°C 56% 1.2 mph WNW1.9 kmh WNW 3.5 mph5.6 kmh 30.13 in1020.3 mb - 0.00 in0.0 mm 0.00 in0.0 mm
06:50 AM -0.9°F-18.3°C -12.5°F-24.7°C 57% 3.5 mph WNW5.6 kmh WNW 6.9 mph11.1 kmh 30.13 in1020.3 mb - 0.00 in0.0 mm 0.00 in0.0 mm
07:00 AM -0.9°F-18.3°C -12.5°F-24.7°C 57% 2.3 mph WNW3.7 kmh WNW 2.3 mph3.7 kmh 30.13 in1020.3 mb - 0.00 in0.0 mm 0.00 in0.0 mm
07:10 AM -1.0°F-18.3°C -12.6°F-24.8°C 57% 1.2 mph WNW1.9 kmh WNW 2.3 mph3.7 kmh 30.13 in1020.3 mb - 0.00 in0.0 mm 0.00 in0.0 mm
07:20 AM -1.0°F-18.3°C -12.6°F-24.8°C 57% 3.5 mph WNW5.6 kmh WNW 3.5 mph5.6 kmh 30.14 in1020.7 mb - 0.00 in0.0 mm 0.00 in0.0 mm
07:30 AM -1.1°F-18.4°C -12.7°F-24.8°C 57% 3.5 mph WNW5.6 kmh WNW 2.3 mph3.7 kmh 30.14 in1020.7 mb - 0.00 in0.0 mm 0.00 in0.0 mm
07:40 AM -1.3°F-18.5°C -12.2°F-24.6°C 59% 3.5 mph WNW5.6 kmh WNW 2.3 mph3.7 kmh 30.15 in1021.0 mb - 0.00 in0.0 mm 0.00 in0.0 mm
07:50 AM -1.4°F-18.6°C -11.9°F-24.4°C 60% 2.3 mph WNW3.7 kmh WNW 2.3 mph3.7 kmh 30.15 in1021.0 mb - 0.00 in0.0 mm 0.00 in0.0 mm
08:00 AM -1.5°F-18.6°C -11.7°F-24.3°C 61% 1.2 mph WNW1.9 kmh WNW 1.2 mph1.9 kmh 30.15 in1021.0 mb - 0.00 in0.0 mm 0.00 in0.0 mm
08:10 AM -1.6°F-18.7°C -11.8°F-24.3°C 61% 2.3 mph WNW3.7 kmh WNW 2.3 mph3.7 kmh 30.16 in1021.3 mb - 0.00 in0.0 mm 0.00 in0.0 mm
08:20 AM -1.6°F-18.7°C -11.8°F-24.3°C 61% 4.6 mph WNW7.4 kmh WNW 2.3 mph3.7 kmh 30.17 in1021.7 mb - 0.00 in0.0 mm 0.00 in0.0 mm
08:30 AM -1.3°F-18.5°C -11.8°F-24.3°C 60% 2.3 mph WNW3.7 kmh WNW 5.8 mph9.3 kmh 30.17 in1021.7 mb - 0.00 in0.0 mm 0.00 in0.0 mm
08:40 AM -1.1°F-18.4°C -12.0°F-24.4°C 59% 2.3 mph WNW3.7 kmh WNW 3.5 mph5.6 kmh 30.17 in1021.7 mb - 0.00 in0.0 mm 0.00 in0.0 mm
08:50 AM -0.9°F-18.3°C -11.8°F-24.3°C 59% 2.3 mph WNW3.7 kmh WNW 3.5 mph5.6 kmh 30.18 in1022.0 mb - 0.00 in0.0 mm 0.00 in0.0 mm
09:00 AM -0.6°F-18.1°C -11.8°F-24.3°C 58% 3.5 mph WNW5.6 kmh WNW 8.1 mph13.0 kmh 30.18 in1022.0 mb - 0.00 in0.0 mm 0.00 in0.0 mm
09:10 AM -0.3°F-17.9°C -11.9°F-24.4°C 57% 4.6 mph WNW7.4 kmh WNW 5.8 mph9.3 kmh 30.19 in1022.4 mb - 0.00 in0.0 mm 0.00 in0.0 mm
09:20 AM 0.3°F-17.6°C -12.1°F-24.5°C 55% 3.5 mph WNW5.6 kmh WNW 5.8 mph9.3 kmh 30.19 in1022.4 mb - 0.00 in0.0 mm 0.00 in0.0 mm
09:30 AM 0.8°F-17.3°C -12.0°F-24.4°C 54% 3.5 mph WNW5.6 kmh WNW 5.8 mph9.3 kmh 30.19 in1022.4 mb - 0.00 in0.0 mm 0.00 in0.0 mm
09:40 AM 1.6°F-16.9°C -11.6°F-24.2°C 53% 2.3 mph WNW3.7 kmh WNW 2.3 mph3.7 kmh 30.20 in1022.7 mb - 0.00 in0.0 mm 0.00 in0.0 mm
09:50 AM 2.1°F-16.6°C -11.1°F-23.9°C 53% 3.5 mph WNW5.6 kmh WNW 5.8 mph9.3 kmh 30.20 in1022.7 mb - 0.00 in0.0 mm 0.00 in0.0 mm
10:00 AM 2.6°F-16.3°C -11.8°F-24.3°C 50% 5.8 mph WNW9.3 kmh WNW 13.8 mph22.2 kmh 30.20 in1022.7 mb - 0.00 in0.0 mm 0.00 in0.0 mm
10:10 AM 2.8°F-16.2°C -12.1°F-24.5°C 49% 4.6 mph WNW7.4 kmh WNW 8.1 mph13.0 kmh 30.20 in1022.7 mb - 0.00 in0.0 mm 0.00 in0.0 mm
10:20 AM 3.3°F-15.9°C -12.0°F-24.4°C 48% 4.6 mph WNW7.4 kmh WNW 9.2 mph14.8 kmh 30.21 in1023.0 mb - 0.00 in0.0 mm 0.00 in0.0 mm
10:30 AM 3.6°F-15.8°C -11.3°F-24.1°C 49% 4.6 mph WNW7.4 kmh WNW 8.1 mph13.0 kmh 30.22 in1023.4 mb - 0.00 in0.0 mm 0.00 in0.0 mm
10:40 AM 3.9°F-15.6°C -11.4°F-24.1°C 48% 3.5 mph WNW5.6 kmh WNW 9.2 mph14.8 kmh 30.22 in1023.4 mb - 0.00 in0.0 mm 0.00 in0.0 mm
10:50 AM 4.2°F-15.4°C -10.8°F-23.8°C 49% 4.6 mph WNW7.4 kmh WNW 11.5 mph18.5 kmh 30.23 in1023.7 mb - 0.00 in0.0 mm 0.00 in0.0 mm
11:00 AM 4.5°F-15.3°C -10.9°F-23.8°C 48% 5.8 mph WNW9.3 kmh WNW 9.2 mph14.8 kmh 30.23 in1023.7 mb - 0.00 in0.0 mm 0.00 in0.0 mm
11:10 AM 5.3°F-14.8°C -10.6°F-23.7°C 47% 5.8 mph WNW9.3 kmh WNW 10.4 mph16.7 kmh 30.23 in1023.7 mb - 0.00 in0.0 mm 0.00 in0.0 mm
11:20 AM 5.9°F-14.5°C -10.0°F-23.3°C 47% 5.8 mph WNW9.3 kmh WNW 11.5 mph18.5 kmh 30.22 in1023.4 mb - 0.00 in0.0 mm 0.00 in0.0 mm
11:30 AM 6.4°F-14.2°C -10.0°F-23.3°C 46% 4.6 mph WNW7.4 kmh WNW 3.5 mph5.6 kmh 30.23 in1023.7 mb - 0.00 in0.0 mm 0.00 in0.0 mm
11:40 AM 7.6°F-13.6°C -9.3°F-22.9°C 45% 3.5 mph WNW5.6 kmh WNW 3.5 mph5.6 kmh 30.23 in1023.7 mb - 0.00 in0.0 mm 0.00 in0.0 mm
11:50 AM 7.6°F-13.6°C -9.8°F-23.2°C 44% 6.9 mph WNW11.1 kmh WNW 10.4 mph16.7 kmh 30.23 in1023.7 mb - 0.00 in0.0 mm 0.00 in0.0 mm
12:00 PM 8.1°F-13.3°C -8.9°F-22.7°C 45% 3.5 mph WNW5.6 kmh WNW 6.9 mph11.1 kmh 30.23 in1023.7 mb - 0.00 in0.0 mm 0.00 in0.0 mm
12:10 PM 8.7°F-12.9°C -9.3°F-22.9°C 43% 3.5 mph WNW5.6 kmh WNW 8.1 mph13.0 kmh 30.23 in1023.7 mb - 0.00 in0.0 mm 0.00 in0.0 mm
12:20 PM 9.4°F-12.6°C -8.2°F-22.3°C 44% 5.8 mph WNW9.3 kmh WNW 10.4 mph16.7 kmh 30.23 in1023.7 mb - 0.00 in0.0 mm 0.00 in0.0 mm
12:30 PM 9.6°F-12.4°C -8.4°F-22.4°C 43% 3.5 mph WNW5.6 kmh WNW 6.9 mph11.1 kmh 30.23 in1023.7 mb - 0.00 in0.0 mm 0.00 in0.0 mm
12:40 PM 9.9°F-12.3°C -8.7°F-22.6°C 42% 3.5 mph WNW5.6 kmh WNW 5.8 mph9.3 kmh 30.22 in1023.4 mb - 0.00 in0.0 mm 0.00 in0.0 mm
12:50 PM 10.7°F-11.8°C -8.4°F-22.4°C 41% 6.9 mph WNW11.1 kmh WNW 9.2 mph14.8 kmh 30.22 in1023.4 mb - 0.00 in0.0 mm 0.00 in0.0 mm
01:00 PM 10.7°F-11.8°C -8.4°F-22.4°C 41% 3.5 mph WNW5.6 kmh WNW 9.2 mph14.8 kmh 30.21 in1023.0 mb - 0.00 in0.0 mm 0.00 in0.0 mm
01:10 PM 11.7°F-11.3°C -8.0°F-22.2°C 40% 3.5 mph WNW5.6 kmh WNW 9.2 mph14.8 kmh 30.21 in1023.0 mb - 0.00 in0.0 mm 0.00 in0.0 mm
01:20 PM 11.5°F-11.4°C -7.2°F-21.8°C 42% 5.8 mph WNW9.3 kmh WNW 6.9 mph11.1 kmh 30.20 in1022.7 mb - 0.00 in0.0 mm 0.00 in0.0 mm
01:30 PM 11.5°F-11.4°C -8.7°F-22.6°C 39% 4.6 mph WNW7.4 kmh WNW 2.3 mph3.7 kmh 30.20 in1022.7 mb - 0.00 in0.0 mm 0.00 in0.0 mm
01:40 PM 11.9°F-11.2°C -8.9°F-22.7°C 38% 2.3 mph WNW3.7 kmh WNW 8.1 mph13.0 kmh 30.20 in1022.7 mb - 0.00 in0.0 mm 0.00 in0.0 mm
01:50 PM 12.5°F-10.8°C -7.8°F-22.1°C 39% 3.5 mph WNW5.6 kmh WNW 8.1 mph13.0 kmh 30.19 in1022.4 mb - 0.00 in0.0 mm 0.00 in0.0 mm
02:00 PM 12.3°F-10.9°C -9.6°F-23.1°C 36% 5.8 mph WNW9.3 kmh WNW 9.2 mph14.8 kmh 30.19 in1022.4 mb - 0.00 in0.0 mm 0.00 in0.0 mm
02:10 PM 12.6°F-10.8°C -8.8°F-22.7°C 37% 5.8 mph WNW9.3 kmh WNW 8.1 mph13.0 kmh 30.19 in1022.4 mb - 0.00 in0.0 mm 0.00 in0.0 mm
02:20 PM 12.9°F-10.6°C -8.5°F-22.5°C 37% 3.5 mph WNW5.6 kmh WNW 5.8 mph9.3 kmh 30.18 in1022.0 mb - 0.00 in0.0 mm 0.00 in0.0 mm
02:30 PM 13.6°F-10.2°C -7.4°F-21.9°C 38% 3.5 mph WNW5.6 kmh WNW 3.5 mph5.6 kmh 30.18 in1022.0 mb - 0.00 in0.0 mm 0.00 in0.0 mm
02:40 PM 13.8°F-10.1°C -8.8°F-22.7°C 35% 3.5 mph WNW5.6 kmh WNW 6.9 mph11.1 kmh 30.18 in1022.0 mb - 0.00 in0.0 mm 0.00 in0.0 mm
02:50 PM 13.7°F-10.2°C -8.4°F-22.4°C 36% 2.3 mph WNW3.7 kmh WNW 8.1 mph13.0 kmh 30.18 in1022.0 mb - 0.00 in0.0 mm 0.00 in0.0 mm
03:00 PM 14.3°F-9.8°C -7.8°F-22.1°C 36% 4.6 mph WNW7.4 kmh WNW 8.1 mph13.0 kmh 30.18 in1022.0 mb - 0.00 in0.0 mm 0.00 in0.0 mm
03:10 PM 14.3°F-9.8°C -9.6°F-23.1°C 33% 8.1 mph WSW13.0 kmh WSW 9.2 mph14.8 kmh 30.17 in1021.7 mb - 0.00 in0.0 mm 0.00 in0.0 mm
03:20 PM 14.3°F-9.8°C -7.3°F-21.8°C 37% 3.5 mph W5.6 kmh W 8.1 mph13.0 kmh 30.18 in1022.0 mb - 0.00 in0.0 mm 0.00 in0.0 mm
03:30 PM 14.2°F-9.9°C -9.1°F-22.8°C 34% 4.6 mph SW7.4 kmh SW 8.1 mph13.0 kmh 30.18 in1022.0 mb - 0.00 in0.0 mm 0.00 in0.0 mm
03:40 PM 14.4°F-9.8°C -7.7°F-22.1°C 36% 1.2 mph W1.9 kmh W 1.2 mph1.9 kmh 30.17 in1021.7 mb - 0.00 in0.0 mm 0.00 in0.0 mm
03:50 PM 14.4°F-9.8°C -8.3°F-22.4°C 35% 2.3 mph W3.7 kmh W 5.8 mph9.3 kmh 30.16 in1021.3 mb - 0.00 in0.0 mm 0.00 in0.0 mm
04:00 PM 13.9°F-10.1°C -8.2°F-22.3°C 36% 4.6 mph WNW7.4 kmh WNW 8.1 mph13.0 kmh 30.16 in1021.3 mb - 0.00 in0.0 mm 0.00 in0.0 mm
04:10 PM 14.1°F-9.9°C -7.4°F-21.9°C 37% 2.3 mph WSW3.7 kmh WSW 5.8 mph9.3 kmh 30.16 in1021.3 mb - 0.00 in0.0 mm 0.00 in0.0 mm
04:20 PM 13.8°F-10.1°C -8.3°F-22.4°C 36% 2.3 mph W3.7 kmh W 2.3 mph3.7 kmh 30.16 in1021.3 mb - 0.00 in0.0 mm 0.00 in0.0 mm
04:30 PM 13.7°F-10.2°C -7.8°F-22.1°C 37% 4.6 mph W7.4 kmh W 10.4 mph16.7 kmh 30.16 in1021.3 mb - 0.00 in0.0 mm 0.00 in0.0 mm
04:40 PM 13.6°F-10.2°C -9.0°F-22.8°C 35% 8.1 mph SW13.0 kmh SW 6.9 mph11.1 kmh 30.16 in1021.3 mb - 0.00 in0.0 mm 0.00 in0.0 mm
04:50 PM 13.6°F-10.2°C -9.0°F-22.8°C 35% 5.8 mph W9.3 kmh W 6.9 mph11.1 kmh 30.16 in1021.3 mb - 0.00 in0.0 mm 0.00 in0.0 mm
05:00 PM 13.3°F-10.4°C -8.2°F-22.3°C 37% 1.2 mph SW1.9 kmh SW 3.5 mph5.6 kmh 30.16 in1021.3 mb - 0.00 in0.0 mm 0.00 in0.0 mm
05:10 PM 12.8°F-10.7°C -7.0°F-21.7°C 40% 3.5 mph WSW5.6 kmh WSW 6.9 mph11.1 kmh 30.16 in1021.3 mb - 0.00 in0.0 mm 0.00 in0.0 mm
05:20 PM 12.6°F-10.8°C -7.7°F-22.1°C 39% 3.5 mph S5.6 kmh S 5.8 mph9.3 kmh 30.17 in1021.7 mb - 0.00 in0.0 mm 0.00 in0.0 mm
05:30 PM 12.4°F-10.9°C -9.0°F-22.8°C 37% 5.8 mph WNW9.3 kmh WNW 5.8 mph9.3 kmh 30.17 in1021.7 mb - 0.00 in0.0 mm 0.00 in0.0 mm
05:40 PM 12.2°F-11.0°C -8.1°F-22.3°C 39% Calm Calm 1.2 mph1.9 kmh 30.17 in1021.7 mb - 0.00 in0.0 mm 0.00 in0.0 mm
05:50 PM 11.7°F-11.3°C -7.5°F-21.9°C 41% 2.3 mph SSE3.7 kmh SSE 2.3 mph3.7 kmh 30.18 in1022.0 mb - 0.00 in0.0 mm 0.00 in0.0 mm
06:00 PM 11.4°F-11.4°C -7.3°F-21.8°C 42% 2.3 mph SW3.7 kmh SW 2.3 mph3.7 kmh 30.18 in1022.0 mb - 0.00 in0.0 mm 0.00 in0.0 mm
06:10 PM 11.1°F-11.6°C -7.6°F-22.0°C 42% 1.2 mph WSW1.9 kmh WSW 2.3 mph3.7 kmh 30.18 in1022.0 mb - 0.00 in0.0 mm 0.00 in0.0 mm
06:20 PM 10.9°F-11.7°C -7.7°F-22.1°C 42% 1.2 mph SSW1.9 kmh SSW 3.5 mph5.6 kmh 30.18 in1022.0 mb - 0.00 in0.0 mm 0.00 in0.0 mm
06:30 PM 10.7°F-11.8°C -7.9°F-22.2°C 42% 2.3 mph W3.7 kmh W 2.3 mph3.7 kmh 30.18 in1022.0 mb - 0.00 in0.0 mm 0.00 in0.0 mm
06:40 PM 10.6°F-11.9°C -8.0°F-22.2°C 42% 1.2 mph WSW1.9 kmh WSW 1.2 mph1.9 kmh 30.19 in1022.4 mb - 0.00 in0.0 mm 0.00 in0.0 mm
06:50 PM 10.2°F-12.1°C -6.9°F-21.6°C 45% 1.2 mph WSW1.9 kmh WSW 2.3 mph3.7 kmh 30.20 in1022.7 mb - 0.00 in0.0 mm 0.00 in0.0 mm
07:00 PM 9.9°F-12.3°C -7.7°F-22.1°C 44% 4.6 mph WSW7.4 kmh WSW 8.1 mph13.0 kmh 30.21 in1023.0 mb - 0.00 in0.0 mm 0.00 in0.0 mm
07:10 PM 10.1°F-12.2°C -7.5°F-21.9°C 44% 4.6 mph WSW7.4 kmh WSW 8.1 mph13.0 kmh 30.21 in1023.0 mb - 0.00 in0.0 mm 0.00 in0.0 mm
07:20 PM 9.7°F-12.4°C -7.0°F-21.7°C 46% 3.5 mph SW5.6 kmh SW 2.3 mph3.7 kmh 30.22 in1023.4 mb - 0.00 in0.0 mm 0.00 in0.0 mm
07:30 PM 9.7°F-12.4°C -7.0°F-21.7°C 46% 5.8 mph WSW9.3 kmh WSW 11.5 mph18.5 kmh 30.22 in1023.4 mb - 0.00 in0.0 mm 0.00 in0.0 mm
07:40 PM 9.4°F-12.6°C -7.2°F-21.8°C 46% 3.5 mph SW5.6 kmh SW 6.9 mph11.1 kmh 30.22 in1023.4 mb - 0.00 in0.0 mm 0.00 in0.0 mm
07:50 PM 9.1°F-12.7°C -6.6°F-21.4°C 48% Calm Calm 2.3 mph3.7 kmh 30.22 in1023.4 mb - 0.00 in0.0 mm 0.00 in0.0 mm
08:00 PM 8.8°F-12.9°C -6.5°F-21.4°C 49% 2.3 mph WNW3.7 kmh WNW 2.3 mph3.7 kmh 30.23 in1023.7 mb - 0.00 in0.0 mm 0.00 in0.0 mm
08:10 PM 8.9°F-12.8°C -6.4°F-21.3°C 49% 1.2 mph WSW1.9 kmh WSW 2.3 mph3.7 kmh 30.23 in1023.7 mb - 0.00 in0.0 mm 0.00 in0.0 mm
08:20 PM 8.9°F-12.8°C -6.4°F-21.3°C 49% 2.3 mph W3.7 kmh W 3.5 mph5.6 kmh 30.23 in1023.7 mb - 0.00 in0.0 mm 0.00 in0.0 mm
08:30 PM 8.8°F-12.9°C -6.5°F-21.4°C 49% 2.3 mph S3.7 kmh S 2.3 mph3.7 kmh 30.23 in1023.7 mb - 0.00 in0.0 mm 0.00 in0.0 mm
08:40 PM 8.6°F-13.0°C -6.7°F-21.5°C 49% 3.5 mph WNW5.6 kmh WNW 3.5 mph5.6 kmh 30.24 in1024.0 mb - 0.00 in0.0 mm 0.00 in0.0 mm
08:50 PM 8.3°F-13.2°C -6.5°F-21.4°C 50% 1.2 mph WSW1.9 kmh WSW 8.1 mph13.0 kmh 30.24 in1024.0 mb - 0.00 in0.0 mm 0.00 in0.0 mm
09:00 PM 8.2°F-13.2°C -6.2°F-21.2°C 51% 3.5 mph WSW5.6 kmh WSW 6.9 mph11.1 kmh 30.24 in1024.0 mb - 0.00 in0.0 mm 0.00 in0.0 mm
09:10 PM 7.9°F-13.4°C -6.5°F-21.4°C 51% 3.5 mph W5.6 kmh W 2.3 mph3.7 kmh 30.24 in1024.0 mb - 0.00 in0.0 mm 0.00 in0.0 mm
09:20 PM 8.1°F-13.3°C -5.9°F-21.1°C 52% 2.3 mph WSW3.7 kmh WSW 5.8 mph9.3 kmh 30.24 in1024.0 mb - 0.00 in0.0 mm 0.00 in0.0 mm
09:30 PM 8.1°F-13.3°C -5.9°F-21.1°C 52% Calm Calm 2.3 mph3.7 kmh 30.25 in1024.4 mb - 0.00 in0.0 mm 0.00 in0.0 mm
09:40 PM 7.8°F-13.4°C -5.4°F-20.8°C 54% 1.2 mph WSW1.9 kmh WSW 2.3 mph3.7 kmh 30.24 in1024.0 mb - 0.00 in0.0 mm 0.00 in0.0 mm
09:50 PM 7.5°F-13.6°C -6.1°F-21.2°C 53% 1.2 mph W1.9 kmh W 5.8 mph9.3 kmh 30.24 in1024.0 mb - 0.00 in0.0 mm 0.00 in0.0 mm
10:00 PM 7.5°F-13.6°C -6.1°F-21.2°C 53% 2.3 mph WSW3.7 kmh WSW 2.3 mph3.7 kmh 30.24 in1024.0 mb - 0.00 in0.0 mm 0.00 in0.0 mm
10:10 PM 7.6°F-13.6°C -6.4°F-21.3°C 52% 1.2 mph WNW1.9 kmh WNW 2.3 mph3.7 kmh 30.24 in1024.0 mb - 0.00 in0.0 mm 0.00 in0.0 mm
10:20 PM 7.5°F-13.6°C -6.1°F-21.2°C 53% 3.5 mph W5.6 kmh W 2.3 mph3.7 kmh 30.25 in1024.4 mb - 0.00 in0.0 mm 0.00 in0.0 mm
10:30 PM 7.2°F-13.8°C -6.0°F-21.1°C 54% 2.3 mph WSW3.7 kmh WSW 2.3 mph3.7 kmh 30.25 in1024.4 mb - 0.00 in0.0 mm 0.00 in0.0 mm
10:40 PM 7.3°F-13.7°C -5.9°F-21.1°C 54% 3.5 mph WSW5.6 kmh WSW 5.8 mph9.3 kmh 30.25 in1024.4 mb - 0.00 in0.0 mm 0.00 in0.0 mm
10:50 PM 7.5°F-13.6°C -5.7°F-20.9°C 54% 2.3 mph W3.7 kmh W 3.5 mph5.6 kmh 30.25 in1024.4 mb - 0.00 in0.0 mm 0.00 in0.0 mm
11:00 PM 7.5°F-13.6°C -6.1°F-21.2°C 53% 1.2 mph W1.9 kmh W 2.3 mph3.7 kmh 30.25 in1024.4 mb - 0.00 in0.0 mm 0.00 in0.0 mm
11:10 PM 7.2°F-13.8°C -5.6°F-20.9°C 55% 2.3 mph WNW3.7 kmh WNW 3.5 mph5.6 kmh 30.26 in1024.7 mb - 0.00 in0.0 mm 0.00 in0.0 mm
11:20 PM 6.8°F-14.0°C -6.0°F-21.1°C 55% 3.5 mph W5.6 kmh W 2.3 mph3.7 kmh 30.26 in1024.7 mb - 0.00 in0.0 mm 0.00 in0.0 mm
11:30 PM 6.8°F-14.0°C -5.6°F-20.9°C 56% 2.3 mph WSW3.7 kmh WSW 2.3 mph3.7 kmh 30.26 in1024.7 mb - 0.00 in0.0 mm 0.00 in0.0 mm
11:40 PM 6.6°F-14.1°C -5.4°F-20.8°C 57% 1.2 mph W1.9 kmh W -- 30.26 in1024.7 mb - 0.00 in0.0 mm 0.00 in0.0 mm
11:50 PM 6.6°F-14.1°C -5.4°F-20.8°C 57% 2.3 mph S3.7 kmh S 2.3 mph3.7 kmh 30.25 in1024.4 mb - 0.00 in0.0 mm 0.00 in0.0 mm